ADDS METAR Data INFO
IDs: Format: Raw Decoded Include TAF

Data at: 0939 UTC 25 Jun 2018

K1F0 250910Z AUTO 30007KT 240V330 10SM SCT030 25/20 A2998 RMK AO2 TSNO
K1F0 250850Z AUTO 18008KT 10SM CLR 25/19 A2985 RMK AO2 TSNO
K1F0 250830Z AUTO 18008KT 10SM CLR 24/19 A2983 RMK AO2 TSNO
K1F0 250810Z AUTO 17005KT 10SM CLR 23/20 A2983 RMK AO2 TSNO
K1F0 250750Z AUTO 16003KT 10SM CLR 23/18 A2985 RMK AO2 TSNO
K1F0 250730Z AUTO 15004KT 10SM CLR 24/18 A2984 RMK AO2 TSNO
K1F0 250710Z AUTO 14006KT 10SM CLR 23/18 A2983 RMK AO2 TSNO
K1F0 250650Z AUTO 13006KT 10SM CLR 24/18 A2984 RMK AO2 TSNO
K1F0 250630Z AUTO 14007KT 10SM CLR 24/18 A2982 RMK AO2 TSNO
K1F0 250610Z AUTO 14009KT 10SM CLR 24/18 A2982 RMK AO2 TSNO
K1F0 250550Z AUTO 14008KT 10SM CLR 24/18 A2981 RMK AO2 TSNO
K1F0 250530Z AUTO 14009KT 10SM CLR 24/18 A2981 RMK AO2 TSNO
K1F0 250510Z AUTO 13009KT 10SM CLR 23/18 A2983 RMK AO2 TSNO
K1F0 250450Z AUTO 13007KT 10SM CLR 23/18 A2985 RMK AO2 TSNO
K1F0 250430Z AUTO 13007KT 10SM CLR 23/17 A2985 RMK AO2 TSNO
K1F0 250410Z AUTO 13006KT 10SM CLR 23/17 A2987 RMK AO2 TSNO
K1F0 250350Z AUTO 12006KT 10SM CLR 23/17 A2987 RMK AO2 TSNO
K1F0 250330Z AUTO 12006KT 10SM CLR 23/18 A2986 RMK AO2 TSNO
K1F0 250310Z AUTO 11006KT 10SM CLR 23/18 A2985 RMK AO2 TSNO
K1F0 250250Z AUTO 10005KT 10SM CLR 23/18 A2984 RMK AO2 TSNO
K1F0 250230Z AUTO 12007KT 10SM CLR 23/18 A2982 RMK AO2 TSNO
K1F0 250210Z AUTO 12005KT 10SM CLR 23/18 A2981 RMK AO2 TSNO
K1F0 250150Z AUTO 13007KT 10SM CLR 23/18 A2982 RMK AO2 TSNO
K1F0 250130Z AUTO 12008KT 10SM CLR 23/18 A2983 RMK AO2 TSNO
K1F0 250110Z AUTO 12007KT 10SM CLR 23/18 A2983 RMK AO2 TSNO
K1F0 250050Z AUTO 11008KT 10SM CLR 23/18 A2985 RMK AO2 TSNO
K1F0 250030Z AUTO 10010G15KT 10SM CLR 23/18 A2985 RMK AO2 TSNO
K1F0 250010Z AUTO 10008KT 10SM CLR 24/19 A2985 RMK AO2 TSNO
K1F0 242350Z AUTO 11009G15KT 10SM CLR 23/18 A2986 RMK AO2 TSNO
K1F0 242330Z AUTO 08009G15KT 10SM CLR 23/18 A2986 RMK AO2 TSNO
K1F0 242310Z AUTO 07010G17KT 10SM CLR 22/20 A2985 RMK AO2 TSNO
K1F0 242250Z AUTO 07012G17KT 10SM CLR 21/20 A2986 RMK AO2 TSNO
K1F0 242230Z AUTO 08006KT 10SM CLR 21/20 A2985 RMK AO2 TSNO
K1F0 242210Z AUTO 09007G16KT 10SM CLR 20/19 A2985 RMK AO2 TSNO
K1F0 242150Z AUTO 09014G20KT 10SM SCT060 20/18 A2987 RMK AO2 P0006 TSNO
K1F0 242130Z AUTO 06013G20KT 7SM -RA SCT020 SCT037 BKN050 20/18 A2987 RMK AO2 P0006 TSNO
K1F0 242110Z AUTO 03021G39KT 10SM SCT023 BKN037 OVC060 23/16 A2992 RMK AO2 TSNO
K1F0 242050Z AUTO 34010G22KT 300V360 10SM BKN060 OVC070 31/20 A2991 RMK AO2 TSNO
K1F0 242030Z AUTO 06005KT 10SM BKN060 OVC070 32/19 A2987 RMK AO2 TSNO
K1F0 242010Z AUTO 00000KT 10SM BKN065 OVC070 32/18 A2987 RMK AO2 TSNO
K1F0 241950Z AUTO 12004KT 10SM BKN055 BKN065 32/18 A2986 RMK AO2 TSNO
K1F0 241930Z AUTO 13008KT 10SM SCT047 SCT055 32/19 A2982 RMK AO2 TSNO
K1F0 241910Z AUTO 14013G18KT 10SM SCT045 32/19 A2980 RMK AO2 TSNO
K1F0 241850Z AUTO 14012G19KT 10SM SCT045 32/20 A2980 RMK AO2 TSNO
K1F0 241830Z AUTO 13014G21KT 10SM SCT041 31/20 A2980 RMK AO2 TSNO
K1F0 241810Z AUTO 14014G20KT 10SM SCT041 31/20 A2981 RMK AO2 TSNO
K1F0 241750Z AUTO 15012G22KT 10SM CLR 31/20 A2982 RMK AO2 TSNO
K1F0 241730Z AUTO 16012G18KT 10SM CLR 30/20 A2983 RMK AO2 TSNO
K1F0 241710Z AUTO 14009G15KT 10SM CLR 30/21 A2984 RMK AO2 TSNO
K1F0 241650Z AUTO 15009KT 10SM CLR 28/21 A2985 RMK AO2 TSNO
K1F0 241630Z AUTO 11009G14KT 10SM SCT050 27/20 A2986 RMK AO2 TSNO
K1F0 241610Z AUTO 12009G15KT 10SM SCT050 26/20 A2986 RMK AO2 TSNO
K1F0 241550Z AUTO 13010KT 10SM SCT044 BKN050 25/19 A2986 RMK AO2 TSNO
K1F0 241530Z AUTO 10009G16KT 10SM SCT034 SCT041 OVC048 23/18 A2987 RMK AO2 TSNO
K1F0 241510Z AUTO 09009G14KT 10SM SCT028 BKN034 OVC049 24/18 A2987 RMK AO2 TSNO
K1F0 241450Z AUTO 09009KT 10SM BKN028 OVC034 23/18 A2988 RMK AO2 TSNO
K1F0 241430Z AUTO 08008G16KT 10SM SCT025 OVC032 23/18 A2989 RMK AO2 TSNO
K1F0 241410Z AUTO 08007KT 10SM SCT023 OVC031 23/18 A2988 RMK AO2 TSNO
K1F0 241350Z AUTO 08007KT 10SM OVC023 23/18 A2987 RMK AO2 TSNO
K1F0 241330Z AUTO 08011KT 10SM OVC021 23/18 A2987 RMK AO2 TSNO
K1F0 241310Z AUTO 03011KT 10SM OVC021 23/17 A2986 RMK AO2 TSNO
K1F0 241250Z AUTO 05004KT 10SM OVC024 26/21 A2986 RMK AO2 TSNO
K1F0 241230Z AUTO 06005KT 10SM OVC026 26/21 A2985 RMK AO2 TSNO
K1F0 241210Z AUTO 07005KT 10SM OVC026 26/21 A2985 RMK AO2 TSNO
K1F0 241150Z AUTO 06004KT 10SM OVC028 26/21 A2984 RMK AO2 TSNO
K1F0 241130Z AUTO 05004KT 10SM BKN030 BKN036 26/21 A2983 RMK AO2 TSNO
K1F0 241110Z AUTO 14007KT 10SM SCT024 BKN030 BKN036 26/21 A2979 RMK AO2 TSNO
K1F0 241050Z AUTO 17003KT 10SM BKN026 OVC032 26/21 A2980 RMK AO2 TSNO
K1F0 241030Z AUTO 14004KT 10SM OVC031 26/20 A2977 RMK AO2 TSNO
K1F0 241010Z AUTO 14004KT 10SM SCT027 26/20 A2975 RMK AO2 TSNO
K1F0 240950Z AUTO 14007KT 10SM CLR 26/20 A2973 RMK AO2 TSNO
K1F0 240930Z AUTO 14008KT 10SM CLR 26/20 A2971 RMK AO2 TSNO
K1F0 240910Z AUTO 12007KT 10SM CLR 27/20 A2970 RMK AO2 TSNO
K1F0 240850Z AUTO 14009G14KT 10SM CLR 27/20 A2971 RMK AO2 TSNO
K1F0 240830Z AUTO 15012G21KT 10SM CLR 27/20 A2970 RMK AO2 TSNO
K1F0 240810Z AUTO 15012G18KT 10SM CLR 27/20 A2970 RMK AO2 TSNO
K1F0 240750Z AUTO 15011G15KT 10SM CLR 27/20 A2970 RMK AO2 TSNO
K1F0 240730Z AUTO 15010G16KT 10SM CLR 28/19 A2971 RMK AO2 TSNO
K1F0 240710Z AUTO 14010G15KT 10SM CLR 28/19 A2971 RMK AO2 TSNO
K1F0 240650Z AUTO 14009G15KT 10SM CLR 28/20 A2972 RMK AO2 TSNO
K1F0 240630Z AUTO 15010G22KT 10SM CLR 28/19 A2974 RMK AO2 TSNO
K1F0 240610Z AUTO 17009KT 10SM SCT090 28/19 A2976 RMK AO2 TSNO
K1F0 240550Z AUTO 17007G16KT 10SM CLR 28/19 A2977 RMK AO2 TSNO
K1F0 240530Z AUTO 16008G14KT 10SM CLR 28/19 A2978 RMK AO2 TSNO
K1F0 240510Z AUTO 16009G16KT 10SM SCT080 28/19 A2978 RMK AO2 TSNO
K1F0 240450Z AUTO 15008KT 10SM BKN080 28/18 A2978 RMK AO2 TSNO
K1F0 240430Z AUTO 14007G16KT 10SM CLR 28/18 A2975 RMK AO2 TSNO
K1F0 240410Z AUTO 14007KT 10SM SCT080 28/18 A2977 RMK AO2 TSNO
K1F0 240350Z AUTO 14007KT 10SM SCT080 28/18 A2977 RMK AO2 TSNO
K1F0 240330Z AUTO 14007KT 10SM SCT080 28/19 A2976 RMK AO2 TSNO
K1F0 240310Z AUTO 14006KT 10SM SCT080 28/20 A2976 RMK AO2 TSNO
K1F0 240250Z AUTO 14005KT 10SM SCT100 28/20 A2974 RMK AO2 TSNO
K1F0 240230Z AUTO 14007KT 10SM OVC100 28/20 A2974 RMK AO2 TSNO
K1F0 240210Z AUTO 14005KT 10SM BKN100 28/21 A2974 RMK AO2 TSNO
K1F0 240150Z AUTO 12003KT 10SM SCT100 28/21 A2973 RMK AO2 TSNO
K1F0 240130Z AUTO 13005KT 10SM SCT004 SCT100 29/20 A2973 RMK AO2 TSNO
K1F0 240110Z AUTO 13004KT 10SM CLR 30/20 A2973 RMK AO2 TSNO
K1F0 240050Z AUTO 13006KT 10SM CLR 30/21 A2974 RMK AO2 TSNO
K1F0 240030Z AUTO 12005KT 10SM CLR 31/22 A2974 RMK AO2 TSNO
K1F0 240010Z AUTO 12007KT 10SM CLR 31/22 A2974 RMK AO2 TSNO
K1F0 232350Z AUTO 11007KT 10SM CLR 31/22 A2975 RMK AO2 TSNO
K1F0 232330Z AUTO 10007KT 10SM SCT060 SCT085 31/22 A2975 RMK AO2 TSNO
K1F0 232310Z AUTO 11005KT 10SM BKN060 OVC080 31/22 A2975 RMK AO2 TSNO
K1F0 232250Z AUTO 11006KT 10SM SCT047 SCT060 BKN080 31/22 A2976 RMK AO2 TSNO
K1F0 232230Z AUTO 11008KT 10SM SCT047 SCT070 31/21 A2976 RMK AO2 TSNO
K1F0 232210Z AUTO 12007KT 10SM SCT044 SCT050 BKN070 32/22 A2976 RMK AO2 TSNO
K1F0 232150Z AUTO 12006KT 10SM SCT050 BKN070 BKN075 31/22 A2977 RMK AO2 TSNO